sensor_id;sensor_type;location;lat;lon;timestamp;temperature;humidity
32524;DHT22;18965;52.242;20.886;2022-08-21T00:01:47;24.20;61.70
32524;DHT22;18965;52.242;20.886;2022-08-21T00:04:13;24.20;61.90
32524;DHT22;18965;52.242;20.886;2022-08-21T00:06:39;24.10;62.00
32524;DHT22;18965;52.242;20.886;2022-08-21T00:09:06;24.10;62.10
32524;DHT22;18965;52.242;20.886;2022-08-21T00:11:33;24.00;62.20
32524;DHT22;18965;52.242;20.886;2022-08-21T00:14:00;24.00;62.40
32524;DHT22;18965;52.242;20.886;2022-08-21T00:16:26;24.00;62.50
32524;DHT22;18965;52.242;20.886;2022-08-21T00:18:52;23.90;62.50
32524;DHT22;18965;52.242;20.886;2022-08-21T00:21:18;23.90;62.70
32524;DHT22;18965;52.242;20.886;2022-08-21T00:23:44;23.80;62.90
32524;DHT22;18965;52.242;20.886;2022-08-21T00:26:09;23.80;63.00
32524;DHT22;18965;52.242;20.886;2022-08-21T00:28:36;23.80;63.10
32524;DHT22;18965;52.242;20.886;2022-08-21T00:31:02;23.70;63.20
32524;DHT22;18965;52.242;20.886;2022-08-21T00:33:30;23.70;63.30
32524;DHT22;18965;52.242;20.886;2022-08-21T00:35:56;23.70;63.50
32524;DHT22;18965;52.242;20.886;2022-08-21T00:38:22;23.60;63.60
32524;DHT22;18965;52.242;20.886;2022-08-21T00:40:54;23.60;63.70
32524;DHT22;18965;52.242;20.886;2022-08-21T00:43:24;23.50;63.90
32524;DHT22;18965;52.242;20.886;2022-08-21T00:45:51;23.50;64.10
32524;DHT22;18965;52.242;20.886;2022-08-21T00:48:19;23.40;64.20
32524;DHT22;18965;52.242;20.886;2022-08-21T00:50:51;23.40;65.00
32524;DHT22;18965;52.242;20.886;2022-08-21T00:53:18;23.40;64.50
32524;DHT22;18965;52.242;20.886;2022-08-21T00:55:45;23.30;64.50
32524;DHT22;18965;52.242;20.886;2022-08-21T00:58:12;23.30;64.70
32524;DHT22;18965;52.242;20.886;2022-08-21T01:00:40;23.30;64.90
32524;DHT22;18965;52.242;20.886;2022-08-21T01:03:11;23.20;65.00
32524;DHT22;18965;52.242;20.886;2022-08-21T01:05:38;23.20;65.20
32524;DHT22;18965;52.242;20.886;2022-08-21T01:08:05;23.20;65.30
32524;DHT22;18965;52.242;20.886;2022-08-21T01:10:31;23.20;65.40
32524;DHT22;18965;52.242;20.886;2022-08-21T01:12:58;23.10;65.40
32524;DHT22;18965;52.242;20.886;2022-08-21T01:15:29;23.10;65.60
32524;DHT22;18965;52.242;20.886;2022-08-21T01:17:56;23.10;65.70
32524;DHT22;18965;52.242;20.886;2022-08-21T01:20:22;23.00;65.60
32524;DHT22;18965;52.242;20.886;2022-08-21T01:22:48;23.10;65.80
32524;DHT22;18965;52.242;20.886;2022-08-21T01:25:15;23.00;65.80
32524;DHT22;18965;52.242;20.886;2022-08-21T01:27:41;23.00;65.90
32524;DHT22;18965;52.242;20.886;2022-08-21T01:30:13;23.00;65.90
32524;DHT22;18965;52.242;20.886;2022-08-21T01:32:40;23.00;66.10
32524;DHT22;18965;52.242;20.886;2022-08-21T01:35:06;22.90;66.30
32524;DHT22;18965;52.242;20.886;2022-08-21T01:37:33;22.90;66.30
32524;DHT22;18965;52.242;20.886;2022-08-21T01:39:59;22.90;66.50
32524;DHT22;18965;52.242;20.886;2022-08-21T01:42:25;22.80;66.60
32524;DHT22;18965;52.242;20.886;2022-08-21T01:44:50;22.80;66.60
32524;DHT22;18965;52.242;20.886;2022-08-21T01:47:16;22.80;66.80
32524;DHT22;18965;52.242;20.886;2022-08-21T01:49:43;22.80;66.90
32524;DHT22;18965;52.242;20.886;2022-08-21T01:52:10;22.70;67.00
32524;DHT22;18965;52.242;20.886;2022-08-21T01:54:37;22.70;67.10
32524;DHT22;18965;52.242;20.886;2022-08-21T01:57:04;22.70;67.30
32524;DHT22;18965;52.242;20.886;2022-08-21T01:59:30;22.60;67.40
32524;DHT22;18965;52.242;20.886;2022-08-21T02:01:56;22.60;67.40
32524;DHT22;18965;52.242;20.886;2022-08-21T02:04:23;22.50;67.50
32524;DHT22;18965;52.242;20.886;2022-08-21T02:06:49;22.50;67.60
32524;DHT22;18965;52.242;20.886;2022-08-21T02:09:28;22.50;67.70
32524;DHT22;18965;52.242;20.886;2022-08-21T02:11:54;22.50;67.90
32524;DHT22;18965;52.242;20.886;2022-08-21T02:14:20;22.40;67.80
32524;DHT22;18965;52.242;20.886;2022-08-21T02:16:46;22.40;68.10
32524;DHT22;18965;52.242;20.886;2022-08-21T02:19:13;22.40;68.20
32524;DHT22;18965;52.242;20.886;2022-08-21T02:21:40;22.40;68.20
32524;DHT22;18965;52.242;20.886;2022-08-21T02:24:06;22.40;68.30
32524;DHT22;18965;52.242;20.886;2022-08-21T02:26:32;22.30;68.30
32524;DHT22;18965;52.242;20.886;2022-08-21T02:28:58;22.30;68.50
32524;DHT22;18965;52.242;20.886;2022-08-21T02:31:24;22.30;68.60
32524;DHT22;18965;52.242;20.886;2022-08-21T02:33:50;22.30;68.70
32524;DHT22;18965;52.242;20.886;2022-08-21T02:36:16;22.20;68.70
32524;DHT22;18965;52.242;20.886;2022-08-21T02:38:43;22.20;68.70
32524;DHT22;18965;52.242;20.886;2022-08-21T02:41:12;22.20;68.90
32524;DHT22;18965;52.242;20.886;2022-08-21T02:43:37;22.20;69.00
32524;DHT22;18965;52.242;20.886;2022-08-21T02:46:05;22.20;68.80
32524;DHT22;18965;52.242;20.886;2022-08-21T02:48:32;22.10;69.10
32524;DHT22;18965;52.242;20.886;2022-08-21T02:51:05;22.10;69.10
32524;DHT22;18965;52.242;20.886;2022-08-21T02:53:32;22.10;69.40
32524;DHT22;18965;52.242;20.886;2022-08-21T02:56:00;22.10;69.30
32524;DHT22;18965;52.242;20.886;2022-08-21T02:58:29;22.10;69.40
32524;DHT22;18965;52.242;20.886;2022-08-21T03:00:57;22.10;69.50
32524;DHT22;18965;52.242;20.886;2022-08-21T03:03:24;22.00;69.30
32524;DHT22;18965;52.242;20.886;2022-08-21T03:05:50;22.00;69.40
32524;DHT22;18965;52.242;20.886;2022-08-21T03:08:17;22.00;69.60
32524;DHT22;18965;52.242;20.886;2022-08-21T03:10:46;22.00;69.80
32524;DHT22;18965;52.242;20.886;2022-08-21T03:13:13;21.90;69.90
32524;DHT22;18965;52.242;20.886;2022-08-21T03:15:39;21.90;69.90
32524;DHT22;18965;52.242;20.886;2022-08-21T03:18:06;21.90;70.00
32524;DHT22;18965;52.242;20.886;2022-08-21T03:20:33;21.90;70.20
32524;DHT22;18965;52.242;20.886;2022-08-21T03:23:01;21.90;70.20
32524;DHT22;18965;52.242;20.886;2022-08-21T03:25:28;21.90;70.50
32524;DHT22;18965;52.242;20.886;2022-08-21T03:27:57;21.90;70.50
32524;DHT22;18965;52.242;20.886;2022-08-21T03:30:23;21.90;71.30
32524;DHT22;18965;52.242;20.886;2022-08-21T03:32:49;21.90;70.50
32524;DHT22;18965;52.242;20.886;2022-08-21T03:35:17;21.90;70.50
32524;DHT22;18965;52.242;20.886;2022-08-21T03:37:44;21.80;70.50
32524;DHT22;18965;52.242;20.886;2022-08-21T03:40:11;21.80;71.20
32524;DHT22;18965;52.242;20.886;2022-08-21T03:42:37;21.80;70.50
32524;DHT22;18965;52.242;20.886;2022-08-21T03:45:04;21.80;70.60
32524;DHT22;18965;52.242;20.886;2022-08-21T03:47:30;21.80;70.60
32524;DHT22;18965;52.242;20.886;2022-08-21T03:49:56;21.80;70.70
32524;DHT22;18965;52.242;20.886;2022-08-21T03:52:22;21.80;70.70
32524;DHT22;18965;52.242;20.886;2022-08-21T03:54:48;21.80;70.80
32524;DHT22;18965;52.242;20.886;2022-08-21T03:57:16;21.80;71.00
32524;DHT22;18965;52.242;20.886;2022-08-21T03:59:42;21.90;70.90
32524;DHT22;18965;52.242;20.886;2022-08-21T04:02:09;21.90;70.80
32524;DHT22;18965;52.242;20.886;2022-08-21T04:04:35;21.80;70.90
32524;DHT22;18965;52.242;20.886;2022-08-21T04:07:02;21.90;71.00
32524;DHT22;18965;52.242;20.886;2022-08-21T04:09:31;21.90;70.90
32524;DHT22;18965;52.242;20.886;2022-08-21T04:11:57;22.00;70.80
32524;DHT22;18965;52.242;20.886;2022-08-21T04:14:23;21.90;70.80
32524;DHT22;18965;52.242;20.886;2022-08-21T04:16:49;22.00;70.90
32524;DHT22;18965;52.242;20.886;2022-08-21T04:19:15;22.00;71.10
32524;DHT22;18965;52.242;20.886;2022-08-21T04:21:41;22.10;71.00
32524;DHT22;18965;52.242;20.886;2022-08-21T04:24:09;22.10;71.00
32524;DHT22;18965;52.242;20.886;2022-08-21T04:26:36;22.10;70.90
32524;DHT22;18965;52.242;20.886;2022-08-21T04:29:03;22.20;71.10
32524;DHT22;18965;52.242;20.886;2022-08-21T04:31:31;22.20;71.10
32524;DHT22;18965;52.242;20.886;2022-08-21T04:33:57;22.20;70.90
32524;DHT22;18965;52.242;20.886;2022-08-21T04:36:23;22.30;70.90
32524;DHT22;18965;52.242;20.886;2022-08-21T04:38:49;22.30;70.90
32524;DHT22;18965;52.242;20.886;2022-08-21T04:41:15;22.40;70.70
32524;DHT22;18965;52.242;20.886;2022-08-21T04:43:40;22.50;70.60
32524;DHT22;18965;52.242;20.886;2022-08-21T04:46:06;22.50;70.60
32524;DHT22;18965;52.242;20.886;2022-08-21T04:48:32;22.60;70.60
32524;DHT22;18965;52.242;20.886;2022-08-21T04:51:17;22.70;70.40
32524;DHT22;18965;52.242;20.886;2022-08-21T04:53:58;22.80;70.10
32524;DHT22;18965;52.242;20.886;2022-08-21T04:56:41;22.90;70.00
32524;DHT22;18965;52.242;20.886;2022-08-21T04:59:17;22.90;69.90
32524;DHT22;18965;52.242;20.886;2022-08-21T05:01:45;23.00;69.80
32524;DHT22;18965;52.242;20.886;2022-08-21T05:40:01;23.70;68.30
32524;DHT22;18965;52.242;20.886;2022-08-21T05:42:27;23.80;68.40
32524;DHT22;18965;52.242;20.886;2022-08-21T05:44:53;23.80;68.40
32524;DHT22;18965;52.242;20.886;2022-08-21T05:47:19;23.90;68.30
32524;DHT22;18965;52.242;20.886;2022-08-21T05:49:45;24.00;68.20
32524;DHT22;18965;52.242;20.886;2022-08-21T05:52:11;24.00;68.20
32524;DHT22;18965;52.242;20.886;2022-08-21T05:54:37;24.10;67.80
32524;DHT22;18965;52.242;20.886;2022-08-21T05:57:03;24.20;67.90
32524;DHT22;18965;52.242;20.886;2022-08-21T05:59:29;24.30;67.60
32524;DHT22;18965;52.242;20.886;2022-08-21T06:01:54;24.30;67.30
32524;DHT22;18965;52.242;20.886;2022-08-21T06:04:20;24.30;67.10
32524;DHT22;18965;52.242;20.886;2022-08-21T06:06:46;24.40;67.00
32524;DHT22;18965;52.242;20.886;2022-08-21T06:09:13;24.50;67.00
32524;DHT22;18965;52.242;20.886;2022-08-21T06:11:38;24.70;66.60
32524;DHT22;18965;52.242;20.886;2022-08-21T06:14:04;24.80;66.20
32524;DHT22;18965;52.242;20.886;2022-08-21T06:16:32;24.90;66.10
32524;DHT22;18965;52.242;20.886;2022-08-21T06:18:58;24.90;65.80
32524;DHT22;18965;52.242;20.886;2022-08-21T06:21:24;24.90;65.50
32524;DHT22;18965;52.242;20.886;2022-08-21T06:23:49;25.00;65.30
32524;DHT22;18965;52.242;20.886;2022-08-21T06:26:15;25.10;65.00
32524;DHT22;18965;52.242;20.886;2022-08-21T06:28:41;25.10;64.30
32524;DHT22;18965;52.242;20.886;2022-08-21T06:31:33;25.20;63.90
32524;DHT22;18965;52.242;20.886;2022-08-21T06:33:59;25.40;63.30
32524;DHT22;18965;52.242;20.886;2022-08-21T06:36:25;25.40;63.20
32524;DHT22;18965;52.242;20.886;2022-08-21T06:38:50;25.50;63.30
32524;DHT22;18965;52.242;20.886;2022-08-21T06:41:16;25.60;63.60
32524;DHT22;18965;52.242;20.886;2022-08-21T06:43:42;25.60;63.60
32524;DHT22;18965;52.242;20.886;2022-08-21T06:46:08;25.70;63.50
32524;DHT22;18965;52.242;20.886;2022-08-21T06:48:33;25.70;63.40
32524;DHT22;18965;52.242;20.886;2022-08-21T06:51:00;25.80;63.20
32524;DHT22;18965;52.242;20.886;2022-08-21T06:53:26;25.80;62.80
32524;DHT22;18965;52.242;20.886;2022-08-21T06:55:52;25.80;62.40
32524;DHT22;18965;52.242;20.886;2022-08-21T06:58:18;25.90;62.50
32524;DHT22;18965;52.242;20.886;2022-08-21T07:00:47;26.00;62.60
32524;DHT22;18965;52.242;20.886;2022-08-21T07:05:45;26.10;62.80
32524;DHT22;18965;52.242;20.886;2022-08-21T07:08:11;26.10;62.70
32524;DHT22;18965;52.242;20.886;2022-08-21T07:10:37;26.20;62.50
32524;DHT22;18965;52.242;20.886;2022-08-21T07:13:02;26.20;62.60
32524;DHT22;18965;52.242;20.886;2022-08-21T07:15:29;26.20;62.40
32524;DHT22;18965;52.242;20.886;2022-08-21T07:17:55;26.30;62.50
32524;DHT22;18965;52.242;20.886;2022-08-21T07:20:20;26.40;62.40
32524;DHT22;18965;52.242;20.886;2022-08-21T07:22:47;26.40;62.00
32524;DHT22;18965;52.242;20.886;2022-08-21T07:25:12;26.50;61.40
32524;DHT22;18965;52.242;20.886;2022-08-21T07:27:38;26.50;61.00
32524;DHT22;18965;52.242;20.886;2022-08-21T07:30:05;26.50;60.50
32524;DHT22;18965;52.242;20.886;2022-08-21T07:32:31;26.60;60.80
32524;DHT22;18965;52.242;20.886;2022-08-21T07:34:57;26.60;60.70
32524;DHT22;18965;52.242;20.886;2022-08-21T07:37:23;26.70;60.80
32524;DHT22;18965;52.242;20.886;2022-08-21T07:39:49;26.70;60.70
32524;DHT22;18965;52.242;20.886;2022-08-21T07:42:16;26.80;60.80
32524;DHT22;18965;52.242;20.886;2022-08-21T07:44:42;26.80;61.00
32524;DHT22;18965;52.242;20.886;2022-08-21T07:47:08;26.80;61.00
32524;DHT22;18965;52.242;20.886;2022-08-21T07:49:34;26.80;60.30
32524;DHT22;18965;52.242;20.886;2022-08-21T07:52:00;26.80;59.90
32524;DHT22;18965;52.242;20.886;2022-08-21T07:54:26;26.90;60.00
32524;DHT22;18965;52.242;20.886;2022-08-21T07:56:52;26.90;59.40
32524;DHT22;18965;52.242;20.886;2022-08-21T07:59:18;26.90;59.10
32524;DHT22;18965;52.242;20.886;2022-08-21T08:01:44;26.90;59.20
32524;DHT22;18965;52.242;20.886;2022-08-21T08:04:09;27.00;59.10
32524;DHT22;18965;52.242;20.886;2022-08-21T08:06:35;27.00;58.80
32524;DHT22;18965;52.242;20.886;2022-08-21T08:09:01;27.00;58.60
32524;DHT22;18965;52.242;20.886;2022-08-21T08:11:29;27.00;58.30
32524;DHT22;18965;52.242;20.886;2022-08-21T08:13:55;27.10;58.20
32524;DHT22;18965;52.242;20.886;2022-08-21T08:16:22;27.10;58.30
32524;DHT22;18965;52.242;20.886;2022-08-21T08:18:48;27.10;58.10
32524;DHT22;18965;52.242;20.886;2022-08-21T08:21:14;27.10;57.60
32524;DHT22;18965;52.242;20.886;2022-08-21T08:23:41;27.10;57.70
32524;DHT22;18965;52.242;20.886;2022-08-21T08:26:06;27.20;58.10
32524;DHT22;18965;52.242;20.886;2022-08-21T08:28:33;27.20;58.20
32524;DHT22;18965;52.242;20.886;2022-08-21T08:30:59;27.20;58.00
32524;DHT22;18965;52.242;20.886;2022-08-21T08:33:25;27.20;57.80
32524;DHT22;18965;52.242;20.886;2022-08-21T08:35:51;27.20;58.20
32524;DHT22;18965;52.242;20.886;2022-08-21T08:38:20;27.30;58.10
32524;DHT22;18965;52.242;20.886;2022-08-21T08:43:17;27.30;57.50
32524;DHT22;18965;52.242;20.886;2022-08-21T08:45:46;27.30;57.50
32524;DHT22;18965;52.242;20.886;2022-08-21T08:50:57;27.30;57.90
32524;DHT22;18965;52.242;20.886;2022-08-21T08:53:31;27.40;57.50
32524;DHT22;18965;52.242;20.886;2022-08-21T08:56:00;27.40;57.60
32524;DHT22;18965;52.242;20.886;2022-08-21T08:58:29;27.40;57.60
32524;DHT22;18965;52.242;20.886;2022-08-21T09:00:56;27.50;57.50
32524;DHT22;18965;52.242;20.886;2022-08-21T09:03:23;27.60;57.80
32524;DHT22;18965;52.242;20.886;2022-08-21T09:08:47;27.70;57.00
32524;DHT22;18965;52.242;20.886;2022-08-21T09:11:30;27.80;56.60
32524;DHT22;18965;52.242;20.886;2022-08-21T09:19:54;28.00;57.00
32524;DHT22;18965;52.242;20.886;2022-08-21T09:25:22;28.20;56.30
32524;DHT22;18965;52.242;20.886;2022-08-21T09:27:49;28.30;55.80
32524;DHT22;18965;52.242;20.886;2022-08-21T09:30:16;28.30;55.40
32524;DHT22;18965;52.242;20.886;2022-08-21T09:32:43;28.30;55.20
32524;DHT22;18965;52.242;20.886;2022-08-21T09:35:13;28.30;55.10
32524;DHT22;18965;52.242;20.886;2022-08-21T09:38:06;28.30;55.00
32524;DHT22;18965;52.242;20.886;2022-08-21T09:40:39;28.30;54.90
32524;DHT22;18965;52.242;20.886;2022-08-21T09:45:32;28.30;55.50
32524;DHT22;18965;52.242;20.886;2022-08-21T09:48:20;28.40;55.20
32524;DHT22;18965;52.242;20.886;2022-08-21T09:50:48;28.50;55.30
32524;DHT22;18965;52.242;20.886;2022-08-21T09:55:57;28.70;55.20
32524;DHT22;18965;52.242;20.886;2022-08-21T09:58:45;28.90;55.40
32524;DHT22;18965;52.242;20.886;2022-08-21T10:01:14;29.10;55.20
32524;DHT22;18965;52.242;20.886;2022-08-21T10:03:40;29.10;54.60
32524;DHT22;18965;52.242;20.886;2022-08-21T10:06:08;29.10;53.90
32524;DHT22;18965;52.242;20.886;2022-08-21T10:08:38;29.20;53.80
32524;DHT22;18965;52.242;20.886;2022-08-21T10:11:11;29.10;53.50
32524;DHT22;18965;52.242;20.886;2022-08-21T10:14:11;29.10;53.60
32524;DHT22;18965;52.242;20.886;2022-08-21T10:22:02;28.80;53.20
32524;DHT22;18965;52.242;20.886;2022-08-21T10:38:58;28.50;54.40
32524;DHT22;18965;52.242;20.886;2022-08-21T10:42:02;28.50;53.50
32524;DHT22;18965;52.242;20.886;2022-08-21T10:45:38;28.50;53.70
32524;DHT22;18965;52.242;20.886;2022-08-21T10:48:16;28.60;54.20
32524;DHT22;18965;52.242;20.886;2022-08-21T10:50:50;28.60;54.10
32524;DHT22;18965;52.242;20.886;2022-08-21T10:56:23;28.50;53.80
32524;DHT22;18965;52.242;20.886;2022-08-21T10:59:12;28.40;53.50
32524;DHT22;18965;52.242;20.886;2022-08-21T11:01:55;28.40;53.90
32524;DHT22;18965;52.242;20.886;2022-08-21T11:04:42;28.40;53.50
32524;DHT22;18965;52.242;20.886;2022-08-21T11:07:31;28.40;53.70
32524;DHT22;18965;52.242;20.886;2022-08-21T11:10:03;28.40;53.40
32524;DHT22;18965;52.242;20.886;2022-08-21T11:13:24;28.40;53.10
32524;DHT22;18965;52.242;20.886;2022-08-21T11:15:41;28.30;53.00
32524;DHT22;18965;52.242;20.886;2022-08-21T11:21:19;28.30;53.20
32524;DHT22;18965;52.242;20.886;2022-08-21T11:26:41;28.30;53.50
32524;DHT22;18965;52.242;20.886;2022-08-21T11:29:13;28.40;53.50
32524;DHT22;18965;52.242;20.886;2022-08-21T11:37:25;28.50;53.30
32524;DHT22;18965;52.242;20.886;2022-08-21T11:50:47;28.80;52.50
32524;DHT22;18965;52.242;20.886;2022-08-21T11:53:35;28.80;52.30
32524;DHT22;18965;52.242;20.886;2022-08-21T11:56:15;28.90;52.70
32524;DHT22;18965;52.242;20.886;2022-08-21T11:58:47;28.90;52.40
32524;DHT22;18965;52.242;20.886;2022-08-21T12:01:21;28.90;51.80
32524;DHT22;18965;52.242;20.886;2022-08-21T12:06:40;28.90;51.90
32524;DHT22;18965;52.242;20.886;2022-08-21T12:12:09;29.00;52.30
32524;DHT22;18965;52.242;20.886;2022-08-21T12:17:08;29.00;51.50
32524;DHT22;18965;52.242;20.886;2022-08-21T12:19:35;29.00;51.20
32524;DHT22;18965;52.242;20.886;2022-08-21T12:22:11;29.00;50.70
32524;DHT22;18965;52.242;20.886;2022-08-21T12:24:43;29.00;50.80
32524;DHT22;18965;52.242;20.886;2022-08-21T12:29:47;29.00;50.30
32524;DHT22;18965;52.242;20.886;2022-08-21T12:34:40;29.00;50.20
32524;DHT22;18965;52.242;20.886;2022-08-21T12:39:48;29.10;50.40
32524;DHT22;18965;52.242;20.886;2022-08-21T12:42:24;29.10;50.20
32524;DHT22;18965;52.242;20.886;2022-08-21T12:45:52;28.90;50.20
32524;DHT22;18965;52.242;20.886;2022-08-21T12:48:23;28.80;50.50
32524;DHT22;18965;52.242;20.886;2022-08-21T12:50:52;28.70;50.30
32524;DHT22;18965;52.242;20.886;2022-08-21T12:53:49;28.60;50.70
32524;DHT22;18965;52.242;20.886;2022-08-21T12:56:19;28.50;50.50
32524;DHT22;18965;52.242;20.886;2022-08-21T12:59:02;28.50;50.40
32524;DHT22;18965;52.242;20.886;2022-08-21T13:04:08;28.50;50.90
32524;DHT22;18965;52.242;20.886;2022-08-21T13:06:44;28.60;51.30
32524;DHT22;18965;52.242;20.886;2022-08-21T13:09:15;28.70;51.40
32524;DHT22;18965;52.242;20.886;2022-08-21T13:11:44;28.80;51.30
32524;DHT22;18965;52.242;20.886;2022-08-21T13:16:55;28.90;51.20
32524;DHT22;18965;52.242;20.886;2022-08-21T13:19:21;28.90;51.10
32524;DHT22;18965;52.242;20.886;2022-08-21T13:21:47;28.80;50.90
32524;DHT22;18965;52.242;20.886;2022-08-21T13:24:19;28.70;50.70
32524;DHT22;18965;52.242;20.886;2022-08-21T13:26:47;28.60;50.60
32524;DHT22;18965;52.242;20.886;2022-08-21T13:29:16;28.60;50.90
32524;DHT22;18965;52.242;20.886;2022-08-21T13:31:48;28.50;51.00
32524;DHT22;18965;52.242;20.886;2022-08-21T13:34:15;28.50;50.90
32524;DHT22;18965;52.242;20.886;2022-08-21T13:36:43;28.40;51.20
32524;DHT22;18965;52.242;20.886;2022-08-21T13:39:12;28.40;51.60
32524;DHT22;18965;52.242;20.886;2022-08-21T13:41:41;28.30;51.80
32524;DHT22;18965;52.242;20.886;2022-08-21T13:44:16;28.40;51.90
32524;DHT22;18965;52.242;20.886;2022-08-21T13:46:43;28.40;52.00
32524;DHT22;18965;52.242;20.886;2022-08-21T13:49:09;28.50;52.00
32524;DHT22;18965;52.242;20.886;2022-08-21T13:51:37;28.50;52.10
32524;DHT22;18965;52.242;20.886;2022-08-21T13:54:38;28.50;52.00
32524;DHT22;18965;52.242;20.886;2022-08-21T13:57:00;28.50;52.00
32524;DHT22;18965;52.242;20.886;2022-08-21T13:59:32;28.40;51.80
32524;DHT22;18965;52.242;20.886;2022-08-21T14:04:37;28.40;51.70
32524;DHT22;18965;52.242;20.886;2022-08-21T14:07:15;28.40;52.30
32524;DHT22;18965;52.242;20.886;2022-08-21T14:09:43;28.40;52.00
32524;DHT22;18965;52.242;20.886;2022-08-21T14:12:18;28.40;51.90
32524;DHT22;18965;52.242;20.886;2022-08-21T14:14:45;28.50;51.80
32524;DHT22;18965;52.242;20.886;2022-08-21T14:17:14;28.50;51.90
32524;DHT22;18965;52.242;20.886;2022-08-21T14:19:51;28.60;51.90
32524;DHT22;18965;52.242;20.886;2022-08-21T14:25:04;28.60;51.80
32524;DHT22;18965;52.242;20.886;2022-08-21T14:27:32;28.70;51.10
32524;DHT22;18965;52.242;20.886;2022-08-21T14:30:03;28.70;51.20
32524;DHT22;18965;52.242;20.886;2022-08-21T14:32:37;28.70;51.50
32524;DHT22;18965;52.242;20.886;2022-08-21T14:35:04;28.70;51.20
32524;DHT22;18965;52.242;20.886;2022-08-21T14:37:29;28.70;51.20
32524;DHT22;18965;52.242;20.886;2022-08-21T14:39:55;28.60;51.20
32524;DHT22;18965;52.242;20.886;2022-08-21T14:42:21;28.60;51.20
32524;DHT22;18965;52.242;20.886;2022-08-21T14:44:47;28.50;51.10
32524;DHT22;18965;52.242;20.886;2022-08-21T14:47:13;28.50;51.10
32524;DHT22;18965;52.242;20.886;2022-08-21T14:49:39;28.40;51.20
32524;DHT22;18965;52.242;20.886;2022-08-21T14:52:05;28.40;51.10
32524;DHT22;18965;52.242;20.886;2022-08-21T14:54:31;28.40;51.30
32524;DHT22;18965;52.242;20.886;2022-08-21T14:57:00;28.40;51.50
32524;DHT22;18965;52.242;20.886;2022-08-21T14:59:26;28.40;51.30
32524;DHT22;18965;52.242;20.886;2022-08-21T15:01:52;28.40;51.50
32524;DHT22;18965;52.242;20.886;2022-08-21T15:04:18;28.40;51.40
32524;DHT22;18965;52.242;20.886;2022-08-21T15:06:44;28.30;51.30
32524;DHT22;18965;52.242;20.886;2022-08-21T15:09:09;28.30;51.20
32524;DHT22;18965;52.242;20.886;2022-08-21T15:11:35;28.20;51.20
32524;DHT22;18965;52.242;20.886;2022-08-21T15:14:03;28.20;51.10
32524;DHT22;18965;52.242;20.886;2022-08-21T15:16:31;28.10;51.00
32524;DHT22;18965;52.242;20.886;2022-08-21T15:18:57;28.10;51.20
32524;DHT22;18965;52.242;20.886;2022-08-21T15:21:23;28.10;51.10
32524;DHT22;18965;52.242;20.886;2022-08-21T15:23:49;28.00;51.90
32524;DHT22;18965;52.242;20.886;2022-08-21T15:26:14;28.10;51.10
32524;DHT22;18965;52.242;20.886;2022-08-21T15:28:40;28.00;50.90
32524;DHT22;18965;52.242;20.886;2022-08-21T15:31:06;28.00;51.00
32524;DHT22;18965;52.242;20.886;2022-08-21T15:33:32;28.00;51.10
32524;DHT22;18965;52.242;20.886;2022-08-21T15:35:58;28.00;51.20
32524;DHT22;18965;52.242;20.886;2022-08-21T15:38:24;28.00;51.10
32524;DHT22;18965;52.242;20.886;2022-08-21T15:40:50;28.00;51.20
32524;DHT22;18965;52.242;20.886;2022-08-21T15:43:31;27.90;51.00
32524;DHT22;18965;52.242;20.886;2022-08-21T15:45:59;28.00;50.90
32524;DHT22;18965;52.242;20.886;2022-08-21T15:48:26;27.90;51.60
32524;DHT22;18965;52.242;20.886;2022-08-21T15:50:51;27.90;51.50
32524;DHT22;18965;52.242;20.886;2022-08-21T15:53:17;27.90;51.50
32524;DHT22;18965;52.242;20.886;2022-08-21T15:55:43;27.80;51.50
32524;DHT22;18965;52.242;20.886;2022-08-21T15:58:13;27.80;51.50
32524;DHT22;18965;52.242;20.886;2022-08-21T16:00:40;27.80;51.70
32524;DHT22;18965;52.242;20.886;2022-08-21T16:03:10;27.80;51.80
32524;DHT22;18965;52.242;20.886;2022-08-21T16:05:39;27.80;51.70
32524;DHT22;18965;52.242;20.886;2022-08-21T16:08:05;27.80;51.70
32524;DHT22;18965;52.242;20.886;2022-08-21T16:10:31;27.70;51.50
32524;DHT22;18965;52.242;20.886;2022-08-21T16:13:03;27.60;51.60
32524;DHT22;18965;52.242;20.886;2022-08-21T16:15:29;27.60;51.80
32524;DHT22;18965;52.242;20.886;2022-08-21T16:17:55;27.60;51.80
32524;DHT22;18965;52.242;20.886;2022-08-21T16:20:27;27.60;51.80
32524;DHT22;18965;52.242;20.886;2022-08-21T16:22:55;27.50;51.90
32524;DHT22;18965;52.242;20.886;2022-08-21T16:25:22;27.50;52.10
32524;DHT22;18965;52.242;20.886;2022-08-21T16:27:50;27.50;52.30
32524;DHT22;18965;52.242;20.886;2022-08-21T16:30:20;27.40;52.50
32524;DHT22;18965;52.242;20.886;2022-08-21T16:32:46;27.40;52.80
32524;DHT22;18965;52.242;20.886;2022-08-21T16:35:15;27.40;53.10
32524;DHT22;18965;52.242;20.886;2022-08-21T16:37:41;27.30;53.30
32524;DHT22;18965;52.242;20.886;2022-08-21T16:40:09;27.30;53.60
32524;DHT22;18965;52.242;20.886;2022-08-21T16:42:36;27.20;54.00
32524;DHT22;18965;52.242;20.886;2022-08-21T16:45:06;27.20;54.20
32524;DHT22;18965;52.242;20.886;2022-08-21T16:47:32;27.10;54.30
32524;DHT22;18965;52.242;20.886;2022-08-21T16:49:58;27.10;54.60
32524;DHT22;18965;52.242;20.886;2022-08-21T16:52:24;27.00;54.90
32524;DHT22;18965;52.242;20.886;2022-08-21T16:54:50;27.00;55.10
32524;DHT22;18965;52.242;20.886;2022-08-21T16:57:16;27.00;55.30
32524;DHT22;18965;52.242;20.886;2022-08-21T16:59:42;26.90;55.30
32524;DHT22;18965;52.242;20.886;2022-08-21T17:02:30;26.90;55.60
32524;DHT22;18965;52.242;20.886;2022-08-21T17:04:57;26.80;55.80
32524;DHT22;18965;52.242;20.886;2022-08-21T17:07:23;26.70;55.70
32524;DHT22;18965;52.242;20.886;2022-08-21T17:09:49;26.70;55.90
32524;DHT22;18965;52.242;20.886;2022-08-21T17:12:15;26.60;55.70
32524;DHT22;18965;52.242;20.886;2022-08-21T17:14:41;26.60;56.00
32524;DHT22;18965;52.242;20.886;2022-08-21T17:17:08;26.50;56.10
32524;DHT22;18965;52.242;20.886;2022-08-21T17:19:35;26.50;56.20
32524;DHT22;18965;52.242;20.886;2022-08-21T17:22:01;26.50;56.60
32524;DHT22;18965;52.242;20.886;2022-08-21T17:24:27;26.40;56.50
32524;DHT22;18965;52.242;20.886;2022-08-21T17:26:54;26.30;56.50
32524;DHT22;18965;52.242;20.886;2022-08-21T17:29:24;26.30;56.70
32524;DHT22;18965;52.242;20.886;2022-08-21T17:31:51;26.20;56.90
32524;DHT22;18965;52.242;20.886;2022-08-21T17:34:17;26.20;57.00
32524;DHT22;18965;52.242;20.886;2022-08-21T17:36:43;26.10;57.10
32524;DHT22;18965;52.242;20.886;2022-08-21T17:39:09;26.00;57.10